sensor_id;sensor_type;location;lat;lon;timestamp;P1;durP1;ratioP1;P2;durP2;ratioP2
10144;SDS011;5113;41.822;23.564;2023-06-14T00:01:28;4.77;;;4.27;;
10144;SDS011;5113;41.822;23.564;2023-06-14T00:04:36;4.73;;;4.30;;
10144;SDS011;5113;41.822;23.564;2023-06-14T00:07:44;5.70;;;5.20;;
10144;SDS011;5113;41.822;23.564;2023-06-14T00:10:53;5.30;;;4.80;;
10144;SDS011;5113;41.822;23.564;2023-06-14T00:13:59;5.03;;;4.17;;
10144;SDS011;5113;41.822;23.564;2023-06-14T00:17:09;4.67;;;4.27;;
10144;SDS011;5113;41.822;23.564;2023-06-14T00:20:15;4.73;;;4.33;;
10144;SDS011;5113;41.822;23.564;2023-06-14T00:23:22;4.97;;;4.67;;
10144;SDS011;5113;41.822;23.564;2023-06-14T00:26:29;4.20;;;3.83;;
10144;SDS011;5113;41.822;23.564;2023-06-14T00:29:36;4.77;;;4.40;;
10144;SDS011;5113;41.822;23.564;2023-06-14T00:32:43;4.70;;;4.30;;
10144;SDS011;5113;41.822;23.564;2023-06-14T00:35:51;4.43;;;4.13;;
10144;SDS011;5113;41.822;23.564;2023-06-14T00:38:58;5.13;;;4.70;;
10144;SDS011;5113;41.822;23.564;2023-06-14T00:42:05;4.87;;;4.47;;
10144;SDS011;5113;41.822;23.564;2023-06-14T00:45:12;5.00;;;4.70;;
10144;SDS011;5113;41.822;23.564;2023-06-14T00:48:20;5.00;;;4.60;;
10144;SDS011;5113;41.822;23.564;2023-06-14T00:51:27;5.17;;;4.67;;
10144;SDS011;5113;41.822;23.564;2023-06-14T00:54:33;4.73;;;4.33;;
10144;SDS011;5113;41.822;23.564;2023-06-14T00:57:40;5.67;;;5.17;;
10144;SDS011;5113;41.822;23.564;2023-06-14T01:00:47;5.27;;;4.83;;
10144;SDS011;5113;41.822;23.564;2023-06-14T01:03:55;6.53;;;5.50;;
10144;SDS011;5113;41.822;23.564;2023-06-14T01:07:02;5.43;;;5.00;;
10144;SDS011;5113;41.822;23.564;2023-06-14T01:10:21;5.23;;;4.83;;
10144;SDS011;5113;41.822;23.564;2023-06-14T01:13:38;8.43;;;6.90;;
10144;SDS011;5113;41.822;23.564;2023-06-14T01:16:49;5.20;;;4.70;;
10144;SDS011;5113;41.822;23.564;2023-06-14T01:19:59;5.57;;;5.07;;
10144;SDS011;5113;41.822;23.564;2023-06-14T01:23:08;5.37;;;4.90;;
10144;SDS011;5113;41.822;23.564;2023-06-14T01:26:16;5.30;;;4.80;;
10144;SDS011;5113;41.822;23.564;2023-06-14T01:29:23;5.57;;;5.10;;
10144;SDS011;5113;41.822;23.564;2023-06-14T01:32:32;6.23;;;5.63;;
10144;SDS011;5113;41.822;23.564;2023-06-14T01:35:38;5.13;;;4.67;;
10144;SDS011;5113;41.822;23.564;2023-06-14T01:38:46;5.57;;;4.73;;
10144;SDS011;5113;41.822;23.564;2023-06-14T01:41:54;5.87;;;5.37;;
10144;SDS011;5113;41.822;23.564;2023-06-14T01:45:02;5.80;;;5.30;;
10144;SDS011;5113;41.822;23.564;2023-06-14T01:48:10;5.70;;;4.93;;
10144;SDS011;5113;41.822;23.564;2023-06-14T01:51:17;6.40;;;5.37;;
10144;SDS011;5113;41.822;23.564;2023-06-14T01:54:24;5.50;;;4.63;;
10144;SDS011;5113;41.822;23.564;2023-06-14T01:57:31;6.33;;;5.73;;
10144;SDS011;5113;41.822;23.564;2023-06-14T02:00:37;5.37;;;4.87;;
10144;SDS011;5113;41.822;23.564;2023-06-14T02:03:45;5.27;;;4.73;;
10144;SDS011;5113;41.822;23.564;2023-06-14T02:06:51;5.20;;;4.77;;
10144;SDS011;5113;41.822;23.564;2023-06-14T02:09:59;5.33;;;4.83;;
10144;SDS011;5113;41.822;23.564;2023-06-14T02:13:05;5.17;;;4.70;;
10144;SDS011;5113;41.822;23.564;2023-06-14T02:16:11;5.07;;;4.67;;
10144;SDS011;5113;41.822;23.564;2023-06-14T02:19:19;5.47;;;5.03;;
10144;SDS011;5113;41.822;23.564;2023-06-14T02:22:26;6.17;;;5.07;;
10144;SDS011;5113;41.822;23.564;2023-06-14T02:25:33;5.77;;;5.33;;
10144;SDS011;5113;41.822;23.564;2023-06-14T02:28:40;7.03;;;6.33;;
10144;SDS011;5113;41.822;23.564;2023-06-14T02:31:46;7.90;;;6.00;;
10144;SDS011;5113;41.822;23.564;2023-06-14T02:34:53;7.23;;;6.53;;
10144;SDS011;5113;41.822;23.564;2023-06-14T02:38:00;7.10;;;6.47;;
10144;SDS011;5113;41.822;23.564;2023-06-14T02:41:07;6.50;;;5.93;;
10144;SDS011;5113;41.822;23.564;2023-06-14T02:44:14;6.37;;;5.80;;
10144;SDS011;5113;41.822;23.564;2023-06-14T02:47:22;6.77;;;6.17;;
10144;SDS011;5113;41.822;23.564;2023-06-14T02:50:29;8.07;;;6.20;;
10144;SDS011;5113;41.822;23.564;2023-06-14T02:53:37;7.13;;;6.43;;
10144;SDS011;5113;41.822;23.564;2023-06-14T02:56:45;6.90;;;6.37;;
10144;SDS011;5113;41.822;23.564;2023-06-14T02:59:51;6.60;;;5.80;;
10144;SDS011;5113;41.822;23.564;2023-06-14T03:02:58;8.77;;;6.20;;
10144;SDS011;5113;41.822;23.564;2023-06-14T03:06:06;5.93;;;5.40;;
10144;SDS011;5113;41.822;23.564;2023-06-14T03:09:13;7.50;;;5.77;;
10144;SDS011;5113;41.822;23.564;2023-06-14T03:12:21;6.40;;;5.80;;
10144;SDS011;5113;41.822;23.564;2023-06-14T03:15:28;6.20;;;5.60;;
10144;SDS011;5113;41.822;23.564;2023-06-14T03:18:36;6.70;;;5.37;;
10144;SDS011;5113;41.822;23.564;2023-06-14T03:21:43;5.90;;;5.40;;
10144;SDS011;5113;41.822;23.564;2023-06-14T03:24:50;5.40;;;5.00;;
10144;SDS011;5113;41.822;23.564;2023-06-14T03:27:58;6.70;;;5.97;;
10144;SDS011;5113;41.822;23.564;2023-06-14T03:31:04;5.37;;;4.93;;
10144;SDS011;5113;41.822;23.564;2023-06-14T03:34:10;5.37;;;4.87;;
10144;SDS011;5113;41.822;23.564;2023-06-14T03:37:17;5.77;;;5.27;;
10144;SDS011;5113;41.822;23.564;2023-06-14T03:40:23;5.70;;;5.20;;
10144;SDS011;5113;41.822;23.564;2023-06-14T03:43:33;6.33;;;5.73;;
10144;SDS011;5113;41.822;23.564;2023-06-14T03:46:39;9.23;;;6.47;;
10144;SDS011;5113;41.822;23.564;2023-06-14T03:49:46;10.60;;;7.30;;
10144;SDS011;5113;41.822;23.564;2023-06-14T03:52:52;6.17;;;5.60;;
10144;SDS011;5113;41.822;23.564;2023-06-14T03:55:58;5.77;;;5.27;;
10144;SDS011;5113;41.822;23.564;2023-06-14T03:59:06;7.33;;;6.23;;
10144;SDS011;5113;41.822;23.564;2023-06-14T04:02:12;7.80;;;6.60;;
10144;SDS011;5113;41.822;23.564;2023-06-14T04:05:20;7.40;;;6.40;;
10144;SDS011;5113;41.822;23.564;2023-06-14T04:08:31;6.67;;;5.93;;
10144;SDS011;5113;41.822;23.564;2023-06-14T04:11:37;6.53;;;5.33;;
10144;SDS011;5113;41.822;23.564;2023-06-14T04:14:45;5.47;;;4.97;;
10144;SDS011;5113;41.822;23.564;2023-06-14T04:17:52;6.33;;;5.73;;
10144;SDS011;5113;41.822;23.564;2023-06-14T04:21:02;5.97;;;5.33;;
10144;SDS011;5113;41.822;23.564;2023-06-14T04:24:09;8.17;;;6.20;;
10144;SDS011;5113;41.822;23.564;2023-06-14T04:27:18;6.17;;;5.57;;
10144;SDS011;5113;41.822;23.564;2023-06-14T04:30:27;6.93;;;5.23;;
10144;SDS011;5113;41.822;23.564;2023-06-14T04:33:36;6.13;;;5.07;;
10144;SDS011;5113;41.822;23.564;2023-06-14T04:36:47;5.17;;;4.73;;
10144;SDS011;5113;41.822;23.564;2023-06-14T04:39:58;6.40;;;5.13;;
10144;SDS011;5113;41.822;23.564;2023-06-14T04:43:04;5.77;;;5.17;;
10144;SDS011;5113;41.822;23.564;2023-06-14T04:46:13;6.10;;;5.07;;
10144;SDS011;5113;41.822;23.564;2023-06-14T04:49:20;7.23;;;5.43;;
10144;SDS011;5113;41.822;23.564;2023-06-14T04:52:31;6.23;;;5.27;;
10144;SDS011;5113;41.822;23.564;2023-06-14T04:55:37;5.47;;;4.97;;
10144;SDS011;5113;41.822;23.564;2023-06-14T04:58:43;5.70;;;4.93;;
10144;SDS011;5113;41.822;23.564;2023-06-14T05:01:52;5.67;;;5.07;;
10144;SDS011;5113;41.822;23.564;2023-06-14T05:04:58;6.77;;;5.27;;
10144;SDS011;5113;41.822;23.564;2023-06-14T05:08:06;6.23;;;5.57;;
10144;SDS011;5113;41.822;23.564;2023-06-14T05:11:12;6.93;;;5.50;;
10144;SDS011;5113;41.822;23.564;2023-06-14T05:14:18;4.90;;;4.40;;
10144;SDS011;5113;41.822;23.564;2023-06-14T05:17:28;7.00;;;4.83;;
10144;SDS011;5113;41.822;23.564;2023-06-14T05:20:34;6.23;;;5.30;;
10144;SDS011;5113;41.822;23.564;2023-06-14T05:23:41;5.27;;;4.77;;
10144;SDS011;5113;41.822;23.564;2023-06-14T05:26:49;6.67;;;5.27;;
10144;SDS011;5113;41.822;23.564;2023-06-14T05:29:55;7.07;;;6.40;;
10144;SDS011;5113;41.822;23.564;2023-06-14T05:33:04;6.33;;;5.73;;
10144;SDS011;5113;41.822;23.564;2023-06-14T05:36:11;6.73;;;5.87;;
10144;SDS011;5113;41.822;23.564;2023-06-14T05:39:17;7.57;;;6.60;;
10144;SDS011;5113;41.822;23.564;2023-06-14T05:42:24;9.20;;;8.13;;
10144;SDS011;5113;41.822;23.564;2023-06-14T05:45:30;10.10;;;5.83;;
10144;SDS011;5113;41.822;23.564;2023-06-14T05:48:38;6.77;;;5.57;;
10144;SDS011;5113;41.822;23.564;2023-06-14T05:51:45;8.27;;;7.43;;
10144;SDS011;5113;41.822;23.564;2023-06-14T05:54:51;7.57;;;6.77;;
10144;SDS011;5113;41.822;23.564;2023-06-14T05:57:58;8.33;;;5.57;;
10144;SDS011;5113;41.822;23.564;2023-06-14T06:01:05;6.07;;;5.47;;
10144;SDS011;5113;41.822;23.564;2023-06-14T06:04:13;7.13;;;6.43;;
10144;SDS011;5113;41.822;23.564;2023-06-14T06:07:20;6.47;;;4.93;;
10144;SDS011;5113;41.822;23.564;2023-06-14T06:10:26;8.87;;;6.10;;
10144;SDS011;5113;41.822;23.564;2023-06-14T06:13:32;7.80;;;5.77;;
10144;SDS011;5113;41.822;23.564;2023-06-14T06:16:39;5.80;;;5.20;;
10144;SDS011;5113;41.822;23.564;2023-06-14T06:19:48;8.40;;;7.33;;
10144;SDS011;5113;41.822;23.564;2023-06-14T06:22:54;7.40;;;5.80;;
10144;SDS011;5113;41.822;23.564;2023-06-14T06:26:01;5.37;;;4.80;;
10144;SDS011;5113;41.822;23.564;2023-06-14T06:29:07;6.20;;;5.53;;
10144;SDS011;5113;41.822;23.564;2023-06-14T06:32:13;5.53;;;5.03;;
10144;SDS011;5113;41.822;23.564;2023-06-14T06:35:21;5.43;;;4.90;;
10144;SDS011;5113;41.822;23.564;2023-06-14T06:38:27;6.43;;;5.30;;
10144;SDS011;5113;41.822;23.564;2023-06-14T06:41:34;6.43;;;5.73;;
10144;SDS011;5113;41.822;23.564;2023-06-14T06:44:41;5.87;;;5.27;;
10144;SDS011;5113;41.822;23.564;2023-06-14T06:47:47;5.20;;;4.80;;
10144;SDS011;5113;41.822;23.564;2023-06-14T06:50:56;5.40;;;5.00;;
10144;SDS011;5113;41.822;23.564;2023-06-14T06:54:02;4.83;;;4.43;;
10144;SDS011;5113;41.822;23.564;2023-06-14T06:57:10;4.80;;;4.40;;
10144;SDS011;5113;41.822;23.564;2023-06-14T07:00:17;4.90;;;4.33;;
10144;SDS011;5113;41.822;23.564;2023-06-14T07:03:24;5.90;;;5.30;;
10144;SDS011;5113;41.822;23.564;2023-06-14T07:06:33;5.20;;;4.70;;
10144;SDS011;5113;41.822;23.564;2023-06-14T07:09:39;4.80;;;4.40;;
10144;SDS011;5113;41.822;23.564;2023-06-14T07:12:46;4.20;;;3.80;;
10144;SDS011;5113;41.822;23.564;2023-06-14T07:15:54;5.00;;;4.20;;
10144;SDS011;5113;41.822;23.564;2023-06-14T07:19:03;4.40;;;3.90;;
10144;SDS011;5113;41.822;23.564;2023-06-14T07:22:11;4.63;;;4.23;;
10144;SDS011;5113;41.822;23.564;2023-06-14T07:25:17;4.70;;;4.27;;
10144;SDS011;5113;41.822;23.564;2023-06-14T07:28:24;4.80;;;4.30;;
10144;SDS011;5113;41.822;23.564;2023-06-14T07:31:31;5.37;;;4.43;;
10144;SDS011;5113;41.822;23.564;2023-06-14T07:34:37;4.80;;;4.40;;
10144;SDS011;5113;41.822;23.564;2023-06-14T07:37:45;4.47;;;4.07;;
10144;SDS011;5113;41.822;23.564;2023-06-14T07:40:51;4.73;;;4.33;;
10144;SDS011;5113;41.822;23.564;2023-06-14T07:43:58;4.03;;;3.53;;
10144;SDS011;5113;41.822;23.564;2023-06-14T07:47:04;4.20;;;3.90;;
10144;SDS011;5113;41.822;23.564;2023-06-14T07:50:11;4.40;;;4.00;;
10144;SDS011;5113;41.822;23.564;2023-06-14T07:53:19;3.77;;;3.47;;
10144;SDS011;5113;41.822;23.564;2023-06-14T07:56:26;4.80;;;4.30;;
10144;SDS011;5113;41.822;23.564;2023-06-14T07:59:33;5.00;;;4.53;;
10144;SDS011;5113;41.822;23.564;2023-06-14T08:02:39;4.13;;;3.85;;
10144;SDS011;5113;41.822;23.564;2023-06-14T08:05:45;4.95;;;4.55;;
10144;SDS011;5113;41.822;23.564;2023-06-14T08:08:53;4.45;;;3.97;;
10144;SDS011;5113;41.822;23.564;2023-06-14T08:12:00;4.32;;;4.03;;
10144;SDS011;5113;41.822;23.564;2023-06-14T08:15:06;4.00;;;3.72;;
10144;SDS011;5113;41.822;23.564;2023-06-14T08:18:19;4.28;;;3.97;;
10144;SDS011;5113;41.822;23.564;2023-06-14T08:21:26;4.55;;;4.25;;
10144;SDS011;5113;41.822;23.564;2023-06-14T08:24:35;4.53;;;4.13;;
10144;SDS011;5113;41.822;23.564;2023-06-14T08:27:41;3.85;;;3.63;;
10144;SDS011;5113;41.822;23.564;2023-06-14T08:30:48;4.25;;;3.95;;
10144;SDS011;5113;41.822;23.564;2023-06-14T08:33:54;5.75;;;4.63;;
10144;SDS011;5113;41.822;23.564;2023-06-14T08:37:01;3.85;;;3.65;;
10144;SDS011;5113;41.822;23.564;2023-06-14T08:40:12;4.40;;;3.95;;
10144;SDS011;5113;41.822;23.564;2023-06-14T08:43:25;4.00;;;3.70;;
10144;SDS011;5113;41.822;23.564;2023-06-14T08:46:32;4.18;;;3.88;;
10144;SDS011;5113;41.822;23.564;2023-06-14T08:49:40;4.82;;;4.22;;
10144;SDS011;5113;41.822;23.564;2023-06-14T08:52:51;4.07;;;3.78;;
10144;SDS011;5113;41.822;23.564;2023-06-14T08:56:04;4.40;;;3.92;;
10144;SDS011;5113;41.822;23.564;2023-06-14T08:59:12;4.38;;;3.92;;
10144;SDS011;5113;41.822;23.564;2023-06-14T09:02:19;3.45;;;3.25;;
10144;SDS011;5113;41.822;23.564;2023-06-14T09:05:28;3.47;;;3.17;;
10144;SDS011;5113;41.822;23.564;2023-06-14T09:08:35;4.25;;;3.85;;
10144;SDS011;5113;41.822;23.564;2023-06-14T09:11:46;3.63;;;3.33;;
10144;SDS011;5113;41.822;23.564;2023-06-14T09:14:52;3.47;;;3.28;;
10144;SDS011;5113;41.822;23.564;2023-06-14T09:18:00;3.45;;;3.25;;
10144;SDS011;5113;41.822;23.564;2023-06-14T09:21:08;4.80;;;4.40;;
10144;SDS011;5113;41.822;23.564;2023-06-14T09:24:15;3.85;;;3.65;;
10144;SDS011;5113;41.822;23.564;2023-06-14T09:27:22;3.60;;;3.40;;
10144;SDS011;5113;41.822;23.564;2023-06-14T09:30:31;4.13;;;3.80;;
10144;SDS011;5113;41.822;23.564;2023-06-14T09:33:37;4.18;;;3.88;;
10144;SDS011;5113;41.822;23.564;2023-06-14T09:36:44;3.22;;;3.03;;
10144;SDS011;5113;41.822;23.564;2023-06-14T09:39:50;3.45;;;3.22;;
10144;SDS011;5113;41.822;23.564;2023-06-14T09:42:58;3.45;;;3.25;;
10144;SDS011;5113;41.822;23.564;2023-06-14T09:46:05;3.58;;;3.38;;
10144;SDS011;5113;41.822;23.564;2023-06-14T09:49:14;3.90;;;3.63;;
10144;SDS011;5113;41.822;23.564;2023-06-14T09:52:21;3.83;;;3.60;;
10144;SDS011;5113;41.822;23.564;2023-06-14T09:55:28;3.90;;;3.70;;
10144;SDS011;5113;41.822;23.564;2023-06-14T09:58:41;3.90;;;3.63;;
10144;SDS011;5113;41.822;23.564;2023-06-14T10:01:59;3.45;;;3.25;;
10144;SDS011;5113;41.822;23.564;2023-06-14T10:05:15;3.40;;;3.15;;
10144;SDS011;5113;41.822;23.564;2023-06-14T10:08:25;3.70;;;3.40;;
10144;SDS011;5113;41.822;23.564;2023-06-14T10:11:38;3.80;;;3.55;;
10144;SDS011;5113;41.822;23.564;2023-06-14T10:14:50;3.50;;;3.20;;
10144;SDS011;5113;41.822;23.564;2023-06-14T10:18:04;3.10;;;2.90;;
10144;SDS011;5113;41.822;23.564;2023-06-14T10:21:21;3.35;;;3.15;;
10144;SDS011;5113;41.822;23.564;2023-06-14T10:24:35;4.07;;;3.67;;
10144;SDS011;5113;41.822;23.564;2023-06-14T10:27:46;3.95;;;3.60;;
10144;SDS011;5113;41.822;23.564;2023-06-14T10:31:04;3.13;;;2.92;;
10144;SDS011;5113;41.822;23.564;2023-06-14T10:34:12;3.65;;;3.45;;
10144;SDS011;5113;41.822;23.564;2023-06-14T10:37:29;3.58;;;3.28;;
10144;SDS011;5113;41.822;23.564;2023-06-14T10:40:35;3.45;;;3.25;;
10144;SDS011;5113;41.822;23.564;2023-06-14T10:43:42;3.40;;;3.20;;
10144;SDS011;5113;41.822;23.564;2023-06-14T10:46:52;3.95;;;3.67;;
10144;SDS011;5113;41.822;23.564;2023-06-14T10:50:02;3.03;;;2.90;;
10144;SDS011;5113;41.822;23.564;2023-06-14T10:53:21;3.22;;;3.03;;
10144;SDS011;5113;41.822;23.564;2023-06-14T10:56:29;2.90;;;2.80;;
10144;SDS011;5113;41.822;23.564;2023-06-14T10:59:36;3.20;;;3.00;;
10144;SDS011;5113;41.822;23.564;2023-06-14T11:02:52;2.60;;;2.50;;
10144;SDS011;5113;41.822;23.564;2023-06-14T11:06:21;3.25;;;3.10;;
10144;SDS011;5113;41.822;23.564;2023-06-14T11:09:35;3.92;;;3.63;;
10144;SDS011;5113;41.822;23.564;2023-06-14T11:12:58;4.85;;;4.45;;
10144;SDS011;5113;41.822;23.564;2023-06-14T11:16:09;5.75;;;5.25;;
10144;SDS011;5113;41.822;23.564;2023-06-14T11:19:19;16.48;;;11.50;;
10144;SDS011;5113;41.822;23.564;2023-06-14T11:22:27;7.82;;;6.13;;
10144;SDS011;5113;41.822;23.564;2023-06-14T11:25:33;6.85;;;5.95;;
10144;SDS011;5113;41.822;23.564;2023-06-14T11:28:42;5.63;;;5.10;;
10144;SDS011;5113;41.822;23.564;2023-06-14T11:31:49;5.20;;;4.80;;
10144;SDS011;5113;41.822;23.564;2023-06-14T11:34:58;6.20;;;5.60;;
10144;SDS011;5113;41.822;23.564;2023-06-14T11:38:04;4.70;;;4.30;;
10144;SDS011;5113;41.822;23.564;2023-06-14T11:41:11;4.15;;;3.85;;
10144;SDS011;5113;41.822;23.564;2023-06-14T11:44:17;4.40;;;4.10;;
10144;SDS011;5113;41.822;23.564;2023-06-14T11:47:24;4.22;;;3.83;;
10144;SDS011;5113;41.822;23.564;2023-06-14T11:50:32;3.58;;;3.28;;
10144;SDS011;5113;41.822;23.564;2023-06-14T11:53:39;3.25;;;3.05;;
10144;SDS011;5113;41.822;23.564;2023-06-14T11:56:45;3.00;;;2.80;;
10144;SDS011;5113;41.822;23.564;2023-06-14T11:59:52;3.10;;;2.90;;
10144;SDS011;5113;41.822;23.564;2023-06-14T12:03:01;4.43;;;3.10;;
10144;SDS011;5113;41.822;23.564;2023-06-14T12:06:09;3.20;;;3.00;;
10144;SDS011;5113;41.822;23.564;2023-06-14T12:09:16;3.90;;;3.60;;
10144;SDS011;5113;41.822;23.564;2023-06-14T12:12:23;3.67;;;3.47;;
10144;SDS011;5113;41.822;23.564;2023-06-14T12:15:31;2.90;;;2.70;;
10144;SDS011;5113;41.822;23.564;2023-06-14T12:18:38;2.70;;;2.50;;
10144;SDS011;5113;41.822;23.564;2023-06-14T12:21:50;2.77;;;2.63;;
10144;SDS011;5113;41.822;23.564;2023-06-14T12:24:57;2.75;;;2.55;;
10144;SDS011;5113;41.822;23.564;2023-06-14T12:28:04;3.63;;;3.33;;
10144;SDS011;5113;41.822;23.564;2023-06-14T12:31:12;3.42;;;3.13;;
10144;SDS011;5113;41.822;23.564;2023-06-14T12:34:19;3.25;;;2.95;;
10144;SDS011;5113;41.822;23.564;2023-06-14T12:37:27;3.88;;;3.40;;
10144;SDS011;5113;41.822;23.564;2023-06-14T12:40:34;3.00;;;2.80;;
10144;SDS011;5113;41.822;23.564;2023-06-14T12:43:42;3.50;;;3.30;;
10144;SDS011;5113;41.822;23.564;2023-06-14T12:46:48;2.85;;;2.67;;
10144;SDS011;5113;41.822;23.564;2023-06-14T12:49:58;3.13;;;2.93;;
10144;SDS011;5113;41.822;23.564;2023-06-14T12:53:06;2.93;;;2.73;;
10144;SDS011;5113;41.822;23.564;2023-06-14T12:56:12;2.67;;;2.50;;
10144;SDS011;5113;41.822;23.564;2023-06-14T12:59:19;3.00;;;2.90;;
10144;SDS011;5113;41.822;23.564;2023-06-14T13:02:25;2.63;;;2.43;;
10144;SDS011;5113;41.822;23.564;2023-06-14T13:05:32;2.47;;;2.37;;
10144;SDS011;5113;41.822;23.564;2023-06-14T13:08:40;4.13;;;2.53;;
10144;SDS011;5113;41.822;23.564;2023-06-14T13:11:47;2.22;;;2.13;;
10144;SDS011;5113;41.822;23.564;2023-06-14T13:14:54;2.33;;;2.23;;
10144;SDS011;5113;41.822;23.564;2023-06-14T13:18:00;3.57;;;3.27;;
10144;SDS011;5113;41.822;23.564;2023-06-14T13:21:08;2.53;;;2.43;;
10144;SDS011;5113;41.822;23.564;2023-06-14T13:24:15;2.78;;;2.58;;
10144;SDS011;5113;41.822;23.564;2023-06-14T13:27:22;2.83;;;2.63;;
10144;SDS011;5113;41.822;23.564;2023-06-14T13:30:29;2.30;;;2.20;;
10144;SDS011;5113;41.822;23.564;2023-06-14T13:33:35;2.30;;;2.20;;
10144;SDS011;5113;41.822;23.564;2023-06-14T13:36:42;2.60;;;2.40;;
10144;SDS011;5113;41.822;23.564;2023-06-14T13:39:49;2.75;;;2.60;;
10144;SDS011;5113;41.822;23.564;2023-06-14T13:42:56;6.13;;;4.88;;
10144;SDS011;5113;41.822;23.564;2023-06-14T13:46:02;2.53;;;2.40;;
10144;SDS011;5113;41.822;23.564;2023-06-14T13:49:09;2.22;;;2.13;;
10144;SDS011;5113;41.822;23.564;2023-06-14T13:52:16;2.30;;;2.20;;
10144;SDS011;5113;41.822;23.564;2023-06-14T13:55:24;1.80;;;1.80;;
10144;SDS011;5113;41.822;23.564;2023-06-14T13:58:31;2.20;;;2.10;;
10144;SDS011;5113;41.822;23.564;2023-06-14T14:01:37;2.10;;;2.00;;
10144;SDS011;5113;41.822;23.564;2023-06-14T14:04:44;2.20;;;2.07;;
10144;SDS011;5113;41.822;23.564;2023-06-14T14:07:56;2.33;;;2.23;;
10144;SDS011;5113;41.822;23.564;2023-06-14T14:11:03;2.70;;;2.30;;
10144;SDS011;5113;41.822;23.564;2023-06-14T14:14:10;2.20;;;2.10;;
10144;SDS011;5113;41.822;23.564;2023-06-14T14:17:16;2.20;;;2.10;;
10144;SDS011;5113;41.822;23.564;2023-06-14T14:20:23;2.80;;;2.60;;
10144;SDS011;5113;41.822;23.564;2023-06-14T14:23:29;3.50;;;3.20;;
10144;SDS011;5113;41.822;23.564;2023-06-14T14:26:37;3.03;;;2.83;;
10144;SDS011;5113;41.822;23.564;2023-06-14T14:29:44;2.60;;;2.40;;
10144;SDS011;5113;41.822;23.564;2023-06-14T14:32:50;2.53;;;2.33;;
10144;SDS011;5113;41.822;23.564;2023-06-14T14:35:57;3.37;;;3.07;;
10144;SDS011;5113;41.822;23.564;2023-06-14T14:39:08;2.53;;;2.43;;
10144;SDS011;5113;41.822;23.564;2023-06-14T14:42:16;3.17;;;2.50;;
10144;SDS011;5113;41.822;23.564;2023-06-14T14:45:22;2.80;;;2.60;;
10144;SDS011;5113;41.822;23.564;2023-06-14T14:48:29;2.90;;;2.70;;
10144;SDS011;5113;41.822;23.564;2023-06-14T14:51:35;2.17;;;2.07;;
10144;SDS011;5113;41.822;23.564;2023-06-14T14:54:43;2.73;;;2.53;;
10144;SDS011;5113;41.822;23.564;2023-06-14T14:57:50;3.63;;;3.13;;
10144;SDS011;5113;41.822;23.564;2023-06-14T15:00:57;2.80;;;2.60;;
10144;SDS011;5113;41.822;23.564;2023-06-14T15:04:04;9.33;;;7.27;;
10144;SDS011;5113;41.822;23.564;2023-06-14T15:07:11;2.70;;;2.50;;
10144;SDS011;5113;41.822;23.564;2023-06-14T15:10:17;2.70;;;2.50;;
10144;SDS011;5113;41.822;23.564;2023-06-14T15:13:25;2.63;;;2.47;;
10144;SDS011;5113;41.822;23.564;2023-06-14T15:16:32;3.03;;;2.83;;
10144;SDS011;5113;41.822;23.564;2023-06-14T15:19:39;2.43;;;2.33;;
10144;SDS011;5113;41.822;23.564;2023-06-14T15:22:45;2.70;;;2.50;;
10144;SDS011;5113;41.822;23.564;2023-06-14T15:25:54;2.90;;;2.70;;
10144;SDS011;5113;41.822;23.564;2023-06-14T15:29:02;2.80;;;2.53;;
10144;SDS011;5113;41.822;23.564;2023-06-14T15:32:09;2.97;;;2.77;;
10144;SDS011;5113;41.822;23.564;2023-06-14T15:35:16;2.47;;;2.27;;
10144;SDS011;5113;41.822;23.564;2023-06-14T15:38:23;2.53;;;2.33;;
10144;SDS011;5113;41.822;23.564;2023-06-14T15:41:30;2.43;;;2.33;;
10144;SDS011;5113;41.822;23.564;2023-06-14T15:44:38;2.63;;;2.43;;
10144;SDS011;5113;41.822;23.564;2023-06-14T15:47:46;2.70;;;2.50;;
10144;SDS011;5113;41.822;23.564;2023-06-14T15:50:53;5.00;;;4.27;;
10144;SDS011;5113;41.822;23.564;2023-06-14T15:53:59;3.07;;;2.83;;
10144;SDS011;5113;41.822;23.564;2023-06-14T15:57:05;2.77;;;2.67;;
10144;SDS011;5113;41.822;23.564;2023-06-14T16:00:14;4.50;;;3.10;;
10144;SDS011;5113;41.822;23.564;2023-06-14T16:03:22;3.13;;;2.83;;
10144;SDS011;5113;41.822;23.564;2023-06-14T16:06:28;3.03;;;2.53;;
10144;SDS011;5113;41.822;23.564;2023-06-14T16:09:35;5.53;;;3.73;;
10144;SDS011;5113;41.822;23.564;2023-06-14T16:12:41;10.20;;;5.37;;
10144;SDS011;5113;41.822;23.564;2023-06-14T16:15:49;10.93;;;4.63;;
10144;SDS011;5113;41.822;23.564;2023-06-14T16:18:55;5.40;;;3.70;;
10144;SDS011;5113;41.822;23.564;2023-06-14T16:22:01;2.70;;;2.50;;
10144;SDS011;5113;41.822;23.564;2023-06-14T16:25:11;2.97;;;2.67;;
10144;SDS011;5113;41.822;23.564;2023-06-14T16:28:17;3.60;;;3.30;;
10144;SDS011;5113;41.822;23.564;2023-06-14T16:31:25;5.67;;;3.97;;
10144;SDS011;5113;41.822;23.564;2023-06-14T16:34:31;4.53;;;3.20;;
10144;SDS011;5113;41.822;23.564;2023-06-14T16:37:39;4.87;;;3.23;;
10144;SDS011;5113;41.822;23.564;2023-06-14T16:40:45;2.73;;;2.53;;
10144;SDS011;5113;41.822;23.564;2023-06-14T16:43:52;3.97;;;3.20;;
10144;SDS011;5113;41.822;23.564;2023-06-14T16:47:00;5.23;;;3.87;;
10144;SDS011;5113;41.822;23.564;2023-06-14T16:50:07;4.20;;;3.80;;
10144;SDS011;5113;41.822;23.564;2023-06-14T16:53:14;3.20;;;2.90;;
10144;SDS011;5113;41.822;23.564;2023-06-14T16:56:20;3.73;;;2.97;;
10144;SDS011;5113;41.822;23.564;2023-06-14T16:59:31;5.63;;;3.70;;
10144;SDS011;5113;41.822;23.564;2023-06-14T17:02:39;3.63;;;3.30;;
10144;SDS011;5113;41.822;23.564;2023-06-14T17:05:54;8.10;;;5.00;;
10144;SDS011;5113;41.822;23.564;2023-06-14T17:09:02;8.87;;;5.80;;
10144;SDS011;5113;41.822;23.564;2023-06-14T17:12:08;4.77;;;4.20;;
10144;SDS011;5113;41.822;23.564;2023-06-14T17:15:16;5.30;;;4.30;;
10144;SDS011;5113;41.822;23.564;2023-06-14T17:18:24;3.17;;;2.87;;
10144;SDS011;5113;41.822;23.564;2023-06-14T17:21:31;3.60;;;3.27;;
10144;SDS011;5113;41.822;23.564;2023-06-14T17:24:37;3.60;;;3.30;;
10144;SDS011;5113;41.822;23.564;2023-06-14T17:27:44;3.70;;;3.43;;
10144;SDS011;5113;41.822;23.564;2023-06-14T17:30:50;4.20;;;3.40;;
10144;SDS011;5113;41.822;23.564;2023-06-14T17:33:58;3.50;;;3.20;;
10144;SDS011;5113;41.822;23.564;2023-06-14T17:37:05;3.23;;;3.03;;
10144;SDS011;5113;41.822;23.564;2023-06-14T17:40:11;4.27;;;3.30;;
10144;SDS011;5113;41.822;23.564;2023-06-14T17:43:18;3.50;;;2.97;;
10144;SDS011;5113;41.822;23.564;2023-06-14T17:46:26;2.73;;;2.63;;
10144;SDS011;5113;41.822;23.564;2023-06-14T17:49:35;4.60;;;4.20;;
10144;SDS011;5113;41.822;23.564;2023-06-14T17:52:42;4.30;;;4.00;;
10144;SDS011;5113;41.822;23.564;2023-06-14T17:55:48;3.10;;;2.90;;
10144;SDS011;5113;41.822;23.564;2023-06-14T17:58:54;5.40;;;4.27;;
10144;SDS011;5113;41.822;23.564;2023-06-14T18:02:01;4.57;;;3.87;;
10144;SDS011;5113;41.822;23.564;2023-06-14T18:05:09;3.43;;;3.17;;
10144;SDS011;5113;41.822;23.564;2023-06-14T18:08:16;4.83;;;3.77;;
10144;SDS011;5113;41.822;23.564;2023-06-14T18:11:22;3.40;;;3.10;;
10144;SDS011;5113;41.822;23.564;2023-06-14T18:14:30;3.70;;;3.33;;
10144;SDS011;5113;41.822;23.564;2023-06-14T18:17:36;4.53;;;4.13;;
10144;SDS011;5113;41.822;23.564;2023-06-14T18:20:43;3.57;;;3.17;;
10144;SDS011;5113;41.822;23.564;2023-06-14T18:23:50;3.40;;;3.03;;
10144;SDS011;5113;41.822;23.564;2023-06-14T18:26:58;3.47;;;3.20;;
10144;SDS011;5113;41.822;23.564;2023-06-14T18:30:06;3.13;;;2.93;;
10144;SDS011;5113;41.822;23.564;2023-06-14T18:33:17;2.53;;;2.43;;
10144;SDS011;5113;41.822;23.564;2023-06-14T18:36:25;2.80;;;2.60;;
10144;SDS011;5113;41.822;23.564;2023-06-14T18:39:32;3.30;;;2.97;;
10144;SDS011;5113;41.822;23.564;2023-06-14T18:42:38;3.30;;;3.00;;
10144;SDS011;5113;41.822;23.564;2023-06-14T18:45:45;2.90;;;2.70;;
10144;SDS011;5113;41.822;23.564;2023-06-14T18:48:51;3.40;;;3.10;;
10144;SDS011;5113;41.822;23.564;2023-06-14T18:51:58;3.97;;;2.77;;